createdAt,value
2022-11-01T00:01:50.867Z,374.86
2022-11-01T00:06:57.981Z,374.11
2022-11-01T00:12:05.112Z,373.87
2022-11-01T00:17:12.312Z,372.03
2022-11-01T00:22:19.505Z,370.97
2022-11-01T00:27:26.714Z,370.88
2022-11-01T00:32:33.874Z,370.45
2022-11-01T00:37:41.155Z,370.65
2022-11-01T00:42:48.372Z,370.03
2022-11-01T00:47:55.607Z,370.28
2022-11-01T00:53:02.834Z,370.06
2022-11-01T00:58:09.992Z,370.00
2022-11-01T01:03:17.251Z,369.32
2022-11-01T01:08:24.466Z,368.28
2022-11-01T01:13:31.669Z,368.05
2022-11-01T01:18:38.847Z,367.97
2022-11-01T01:23:46.103Z,368.30
2022-11-01T01:28:53.312Z,368.75
2022-11-01T01:34:00.576Z,368.62
2022-11-01T01:39:07.787Z,366.12
2022-11-01T01:44:14.969Z,366.66
2022-11-01T01:49:22.165Z,366.93
2022-11-01T01:54:29.386Z,366.91
2022-11-01T01:59:36.578Z,367.22
2022-11-01T02:04:44.325Z,367.71
2022-11-01T02:09:51.548Z,367.32
2022-11-01T02:14:58.808Z,367.65
2022-11-01T02:20:06.015Z,368.77
2022-11-01T02:25:13.246Z,368.93
2022-11-01T02:30:20.417Z,369.74
2022-11-01T02:35:27.624Z,370.03
2022-11-01T02:40:34.856Z,369.26
2022-11-01T02:45:42.022Z,369.83
2022-11-01T02:50:49.219Z,369.68
2022-11-01T02:55:56.473Z,369.99
2022-11-01T03:01:03.764Z,370.96
2022-11-01T03:06:10.854Z,370.44
2022-11-01T03:11:18.137Z,369.74
2022-11-01T03:16:25.294Z,370.04
2022-11-01T03:21:32.476Z,369.14
2022-11-01T03:26:39.794Z,367.87
2022-11-01T03:31:46.974Z,365.99
2022-11-01T03:36:54.182Z,366.26
2022-11-01T03:42:01.413Z,366.35
2022-11-01T03:47:08.585Z,365.25
2022-11-01T03:52:15.802Z,363.97
2022-11-01T03:57:22.982Z,365.17
2022-11-01T04:02:30.158Z,365.22
2022-11-01T04:07:37.312Z,364.22
2022-11-01T04:12:44.589Z,363.57
2022-11-01T04:17:51.776Z,363.56
2022-11-01T04:22:59.315Z,362.65
2022-11-01T04:28:06.265Z,361.96
2022-11-01T04:33:13.424Z,362.03
2022-11-01T04:38:20.610Z,361.72
2022-11-01T04:43:27.894Z,361.49
2022-11-01T04:48:35.077Z,361.14
2022-11-01T04:53:43.735Z,359.00
2022-11-01T04:58:51.227Z,358.53
2022-11-01T05:03:58.422Z,357.05
2022-11-01T05:09:05.613Z,357.17
2022-11-01T05:14:12.809Z,355.04
2022-11-01T05:19:20.025Z,353.82
2022-11-01T05:24:27.229Z,353.94
2022-11-01T05:29:34.456Z,353.21
2022-11-01T05:34:41.623Z,352.74
2022-11-01T05:39:48.861Z,351.06
2022-11-01T05:44:56.075Z,351.50
2022-11-01T05:50:03.319Z,350.82
2022-11-01T05:55:10.505Z,350.52
2022-11-01T06:00:17.795Z,349.70
2022-11-01T06:05:24.977Z,349.07
2022-11-01T06:10:32.174Z,348.84
2022-11-01T06:15:39.820Z,348.76
2022-11-01T06:20:46.594Z,346.98
2022-11-01T06:25:53.784Z,346.94
2022-11-01T06:31:01.087Z,345.44
2022-11-01T06:36:08.203Z,345.18
2022-11-01T06:41:15.507Z,343.94
2022-11-01T06:46:22.704Z,343.62
2022-11-01T06:51:30.690Z,343.39
2022-11-01T06:56:37.930Z,342.02
2022-11-01T07:01:45.322Z,342.54
2022-11-01T07:06:52.368Z,341.88
2022-11-01T07:11:59.548Z,341.49
2022-11-01T07:17:06.771Z,340.58
2022-11-01T07:22:13.959Z,340.12
2022-11-01T07:27:21.144Z,339.95
2022-11-01T07:32:28.381Z,339.67
2022-11-01T07:37:35.578Z,339.22
2022-11-01T07:42:42.770Z,339.65
2022-11-01T07:47:49.976Z,340.15
2022-11-01T07:52:57.082Z,339.81
2022-11-01T07:58:04.691Z,340.79
2022-11-01T08:03:11.565Z,341.02
2022-11-01T08:08:18.698Z,341.06
2022-11-01T08:13:25.858Z,342.18
2022-11-01T08:18:33.132Z,341.98
2022-11-01T08:23:40.302Z,341.64
2022-11-01T08:28:47.518Z,341.04
2022-11-01T08:33:54.834Z,341.49
2022-11-01T08:39:02.100Z,342.20
2022-11-01T08:44:09.253Z,342.94
2022-11-01T08:49:16.486Z,342.69
2022-11-01T08:54:23.711Z,341.82
2022-11-01T08:59:30.938Z,341.94
2022-11-01T09:04:40.479Z,341.83
2022-11-01T09:09:47.666Z,340.91
2022-11-01T09:14:54.910Z,340.20
2022-11-01T09:20:02.191Z,340.60
2022-11-01T09:25:09.394Z,339.86
2022-11-01T09:30:16.673Z,339.19
2022-11-01T09:35:23.879Z,339.26
2022-11-01T09:40:31.112Z,339.34
2022-11-01T09:45:38.367Z,338.24
2022-11-01T09:50:45.584Z,338.64
2022-11-01T09:55:52.780Z,338.74
2022-11-01T10:01:00.019Z,339.00
2022-11-01T10:06:07.329Z,339.68
2022-11-01T10:11:14.532Z,340.54
2022-11-01T10:16:21.721Z,340.40
2022-11-01T10:21:29.891Z,339.88
2022-11-01T10:26:36.124Z,340.12
2022-11-01T10:31:43.292Z,340.36
2022-11-01T10:36:50.567Z,340.39
2022-11-01T10:41:57.726Z,340.22
2022-11-01T10:47:05.015Z,340.70
2022-11-01T10:52:12.222Z,340.57
2022-11-01T10:57:19.423Z,340.79
2022-11-01T11:02:26.740Z,341.51
2022-11-01T11:07:33.864Z,341.54
2022-11-01T11:12:40.997Z,341.77
2022-11-01T11:17:48.340Z,341.29
2022-11-01T11:22:55.585Z,341.27
2022-11-01T11:28:02.979Z,341.57
2022-11-01T11:33:09.971Z,341.55
2022-11-01T11:38:17.182Z,341.15
2022-11-01T11:43:24.398Z,341.62
2022-11-01T11:48:31.616Z,341.55
2022-11-01T11:53:38.910Z,341.37
2022-11-01T11:58:46.114Z,341.36
2022-11-01T12:03:53.296Z,340.60
2022-11-01T12:09:00.525Z,340.62
2022-11-01T12:14:07.775Z,340.73
2022-11-01T12:19:16.560Z,341.14
2022-11-01T12:24:23.837Z,341.37
2022-11-01T12:29:31.254Z,341.87
2022-11-01T12:34:41.530Z,342.56
2022-11-01T12:39:46.002Z,342.63
2022-11-01T12:44:53.494Z,343.30
2022-11-01T12:50:00.870Z,343.44
2022-11-01T12:55:08.103Z,343.19
2022-11-01T13:00:15.317Z,343.44
2022-11-01T13:05:22.489Z,343.43
2022-11-01T13:10:29.810Z,342.99
2022-11-01T13:15:36.975Z,343.04
2022-11-01T13:20:44.124Z,342.95
2022-11-01T13:25:51.412Z,343.29
2022-11-01T13:30:58.658Z,343.50
2022-11-01T13:36:05.976Z,343.14
2022-11-01T13:41:13.304Z,343.20
2022-11-01T13:46:20.485Z,343.10
2022-11-01T13:51:27.878Z,342.78
2022-11-01T13:56:35.531Z,342.98
2022-11-01T14:01:42.880Z,343.11
2022-11-01T14:06:49.968Z,342.54
2022-11-01T14:11:57.255Z,342.80
2022-11-01T14:17:04.500Z,342.51
2022-11-01T14:22:11.688Z,342.83
2022-11-01T14:27:19.210Z,342.58
2022-11-01T14:32:26.432Z,342.72
2022-11-01T14:37:33.620Z,342.55
2022-11-01T14:42:41.060Z,341.90
2022-11-01T14:47:48.454Z,341.36
2022-11-01T14:52:55.650Z,341.34
2022-11-01T14:58:03.239Z,340.48
2022-11-01T15:03:09.986Z,339.97
2022-11-01T15:08:17.299Z,340.08
2022-11-01T15:13:24.800Z,339.79
2022-11-01T15:18:32.397Z,339.69
2022-11-01T15:23:39.721Z,339.66
2022-11-01T15:28:47.243Z,339.55
2022-11-01T15:33:55.994Z,339.26
2022-11-01T15:39:03.292Z,339.38
2022-11-01T15:44:10.581Z,339.25
2022-11-01T15:49:17.811Z,339.14
2022-11-01T15:54:30.866Z,339.16
2022-11-01T15:59:33.024Z,339.39
2022-11-01T16:04:40.402Z,339.01
2022-11-01T16:09:47.626Z,338.30
2022-11-01T16:14:55.157Z,338.24
2022-11-01T16:20:03.149Z,338.28
2022-11-01T16:25:10.540Z,337.89
2022-11-01T16:30:17.990Z,338.00
2022-11-01T16:35:25.312Z,337.78
2022-11-01T16:40:32.795Z,337.22
2022-11-01T16:45:42.059Z,336.19
2022-11-01T16:50:49.552Z,335.68
2022-11-01T16:56:01.512Z,335.21
2022-11-01T17:01:04.605Z,334.18
2022-11-01T17:06:11.889Z,334.37
2022-11-01T17:11:19.394Z,333.93
2022-11-01T17:16:26.868Z,333.93
2022-11-01T17:21:34.316Z,332.64
2022-11-01T17:26:41.773Z,332.88
2022-11-01T17:31:48.962Z,331.86
2022-11-01T17:36:56.443Z,331.05
2022-11-01T17:42:03.847Z,330.49
2022-11-01T17:47:11.413Z,330.47
2022-11-01T17:52:18.675Z,329.93
2022-11-01T17:57:25.995Z,330.29
2022-11-01T18:02:33.568Z,330.13
2022-11-01T18:07:41.108Z,330.02
2022-11-01T18:12:48.721Z,329.86
2022-11-01T18:17:58.664Z,329.80
2022-11-01T18:23:03.751Z,329.27
2022-11-01T18:28:11.360Z,328.94
2022-11-01T18:33:18.998Z,328.80
2022-11-01T18:38:26.591Z,328.87
2022-11-01T18:43:34.207Z,328.20
2022-11-01T18:48:41.841Z,328.42
2022-11-01T18:53:49.533Z,329.01
2022-11-01T18:58:57.148Z,329.24
2022-11-01T19:04:06.331Z,329.16
2022-11-01T19:09:13.713Z,329.37
2022-11-01T19:14:21.127Z,329.64
2022-11-01T19:19:28.859Z,329.51
2022-11-01T19:24:36.199Z,329.79
2022-11-01T19:29:43.666Z,329.39
2022-11-01T19:34:51.293Z,329.66
2022-11-01T19:39:58.672Z,329.43
2022-11-01T19:45:06.136Z,329.37
2022-11-01T19:50:14.749Z,329.40
2022-11-01T19:55:22.340Z,329.48
2022-11-01T20:00:30.065Z,329.29
2022-11-01T20:05:37.701Z,328.85
2022-11-01T20:10:45.388Z,329.32
2022-11-01T20:15:53.003Z,328.88
2022-11-01T20:21:00.646Z,328.81
2022-11-01T20:26:08.335Z,328.84
2022-11-01T20:31:15.949Z,328.75
2022-11-01T20:36:23.353Z,328.44
2022-11-01T20:41:30.872Z,327.51
2022-11-01T20:46:38.491Z,326.96
2022-11-01T20:51:45.828Z,327.40
2022-11-01T20:56:53.303Z,327.12
2022-11-01T21:02:00.707Z,327.09
2022-11-01T21:07:07.900Z,327.55
2022-11-01T21:12:15.036Z,328.41
2022-11-01T21:17:22.430Z,327.47
2022-11-01T21:22:29.843Z,326.38
2022-11-01T21:27:37.080Z,325.58
2022-11-01T21:32:45.480Z,325.81
2022-11-01T21:37:51.960Z,325.49
2022-11-01T21:42:59.480Z,325.16
2022-11-01T21:48:07.224Z,324.40
2022-11-01T21:53:14.071Z,324.86
2022-11-01T21:58:21.310Z,324.39
2022-11-01T22:03:28.510Z,323.77
2022-11-01T22:08:35.739Z,323.96
2022-11-01T22:13:42.987Z,323.53
2022-11-01T22:18:50.198Z,323.32
2022-11-01T22:23:57.445Z,323.69
2022-11-01T22:29:04.640Z,323.91
2022-11-01T22:34:11.866Z,323.80
2022-11-01T22:39:19.066Z,324.15
2022-11-01T22:44:26.291Z,324.43
2022-11-01T22:49:33.451Z,324.10
2022-11-01T22:54:40.743Z,324.01
2022-11-01T22:59:47.968Z,323.98
2022-11-01T23:04:55.128Z,323.76
2022-11-01T23:10:02.408Z,323.47
2022-11-01T23:15:09.574Z,323.64
2022-11-01T23:20:16.787Z,323.54
2022-11-01T23:25:24.014Z,323.92
2022-11-01T23:30:31.234Z,323.70
2022-11-01T23:35:38.401Z,323.44
2022-11-01T23:40:45.649Z,322.88
2022-11-01T23:45:52.819Z,322.21
2022-11-01T23:51:00.013Z,322.36
2022-11-01T23:56:07.243Z,321.92
